sensor_id;sensor_type;location;lat;lon;timestamp;P1;durP1;ratioP1;P2;durP2;ratioP2
2656;SDS011;1338;48.176;11.792;2022-10-31T00:00:45;9.90;;;8.00;;
2656;SDS011;1338;48.176;11.792;2022-10-31T00:03:14;10.30;;;7.80;;
2656;SDS011;1338;48.176;11.792;2022-10-31T00:05:43;8.97;;;7.97;;
2656;SDS011;1338;48.176;11.792;2022-10-31T00:08:12;10.97;;;7.67;;
2656;SDS011;1338;48.176;11.792;2022-10-31T00:10:42;11.90;;;8.40;;
2656;SDS011;1338;48.176;11.792;2022-10-31T00:13:12;12.77;;;8.00;;
2656;SDS011;1338;48.176;11.792;2022-10-31T00:15:41;14.13;;;9.10;;
2656;SDS011;1338;48.176;11.792;2022-10-31T00:18:09;10.47;;;7.90;;
2656;SDS011;1338;48.176;11.792;2022-10-31T00:20:38;8.43;;;7.63;;
2656;SDS011;1338;48.176;11.792;2022-10-31T00:23:06;12.03;;;7.57;;
2656;SDS011;1338;48.176;11.792;2022-10-31T00:25:35;12.13;;;7.73;;
2656;SDS011;1338;48.176;11.792;2022-10-31T00:28:07;9.33;;;7.40;;
2656;SDS011;1338;48.176;11.792;2022-10-31T00:30:39;12.10;;;7.50;;
2656;SDS011;1338;48.176;11.792;2022-10-31T00:33:07;9.90;;;6.93;;
2656;SDS011;1338;48.176;11.792;2022-10-31T00:35:35;11.30;;;7.53;;
2656;SDS011;1338;48.176;11.792;2022-10-31T00:38:04;11.40;;;8.17;;
2656;SDS011;1338;48.176;11.792;2022-10-31T00:40:32;12.83;;;8.00;;
2656;SDS011;1338;48.176;11.792;2022-10-31T00:43:00;9.90;;;7.40;;
2656;SDS011;1338;48.176;11.792;2022-10-31T00:45:30;12.73;;;7.63;;
2656;SDS011;1338;48.176;11.792;2022-10-31T00:47:58;9.60;;;7.50;;
2656;SDS011;1338;48.176;11.792;2022-10-31T00:50:27;9.00;;;7.70;;
2656;SDS011;1338;48.176;11.792;2022-10-31T00:52:56;8.97;;;7.13;;
2656;SDS011;1338;48.176;11.792;2022-10-31T00:55:24;12.77;;;7.70;;
2656;SDS011;1338;48.176;11.792;2022-10-31T00:57:52;10.30;;;8.20;;
2656;SDS011;1338;48.176;11.792;2022-10-31T01:00:21;9.20;;;7.20;;
2656;SDS011;1338;48.176;11.792;2022-10-31T01:02:50;11.03;;;7.57;;
2656;SDS011;1338;48.176;11.792;2022-10-31T01:05:18;10.03;;;6.80;;
2656;SDS011;1338;48.176;11.792;2022-10-31T01:07:47;11.13;;;7.90;;
2656;SDS011;1338;48.176;11.792;2022-10-31T01:10:15;11.17;;;8.43;;
2656;SDS011;1338;48.176;11.792;2022-10-31T01:12:44;8.17;;;6.97;;
2656;SDS011;1338;48.176;11.792;2022-10-31T01:15:14;13.80;;;7.20;;
2656;SDS011;1338;48.176;11.792;2022-10-31T01:17:43;9.50;;;7.50;;
2656;SDS011;1338;48.176;11.792;2022-10-31T01:20:13;7.87;;;7.07;;
2656;SDS011;1338;48.176;11.792;2022-10-31T01:22:42;10.40;;;6.97;;
2656;SDS011;1338;48.176;11.792;2022-10-31T01:25:11;8.60;;;6.87;;
2656;SDS011;1338;48.176;11.792;2022-10-31T01:27:39;9.43;;;7.10;;
2656;SDS011;1338;48.176;11.792;2022-10-31T01:30:08;12.10;;;7.17;;
2656;SDS011;1338;48.176;11.792;2022-10-31T01:32:37;9.67;;;6.90;;
2656;SDS011;1338;48.176;11.792;2022-10-31T01:35:05;10.50;;;7.93;;
2656;SDS011;1338;48.176;11.792;2022-10-31T01:37:35;10.33;;;7.53;;
2656;SDS011;1338;48.176;11.792;2022-10-31T01:40:04;11.50;;;7.43;;
2656;SDS011;1338;48.176;11.792;2022-10-31T01:42:32;8.23;;;7.00;;
2656;SDS011;1338;48.176;11.792;2022-10-31T01:45:02;8.27;;;6.53;;
2656;SDS011;1338;48.176;11.792;2022-10-31T01:47:37;8.60;;;6.50;;
2656;SDS011;1338;48.176;11.792;2022-10-31T01:50:13;9.50;;;7.27;;
2656;SDS011;1338;48.176;11.792;2022-10-31T01:52:48;8.30;;;6.93;;
2656;SDS011;1338;48.176;11.792;2022-10-31T01:55:20;8.63;;;7.10;;
2656;SDS011;1338;48.176;11.792;2022-10-31T01:57:56;8.03;;;7.23;;
2656;SDS011;1338;48.176;11.792;2022-10-31T02:00:27;10.63;;;6.30;;
2656;SDS011;1338;48.176;11.792;2022-10-31T02:02:55;9.50;;;6.50;;
2656;SDS011;1338;48.176;11.792;2022-10-31T02:05:27;7.37;;;6.30;;
2656;SDS011;1338;48.176;11.792;2022-10-31T02:07:59;9.53;;;7.10;;
2656;SDS011;1338;48.176;11.792;2022-10-31T02:10:31;7.03;;;5.67;;
2656;SDS011;1338;48.176;11.792;2022-10-31T02:13:01;7.70;;;6.50;;
2656;SDS011;1338;48.176;11.792;2022-10-31T02:15:34;9.03;;;7.07;;
2656;SDS011;1338;48.176;11.792;2022-10-31T02:18:03;8.23;;;6.17;;
2656;SDS011;1338;48.176;11.792;2022-10-31T02:20:33;12.23;;;6.70;;
2656;SDS011;1338;48.176;11.792;2022-10-31T02:29:12;12.00;;;6.77;;
2656;SDS011;1338;48.176;11.792;2022-10-31T02:31:58;8.33;;;6.07;;
2656;SDS011;1338;48.176;11.792;2022-10-31T02:34:33;8.60;;;6.57;;
2656;SDS011;1338;48.176;11.792;2022-10-31T02:37:06;6.93;;;6.13;;
2656;SDS011;1338;48.176;11.792;2022-10-31T02:39:42;6.60;;;6.00;;
2656;SDS011;1338;48.176;11.792;2022-10-31T02:42:26;8.90;;;6.30;;
2656;SDS011;1338;48.176;11.792;2022-10-31T02:45:00;10.30;;;6.10;;
2656;SDS011;1338;48.176;11.792;2022-10-31T02:47:36;6.73;;;6.03;;
2656;SDS011;1338;48.176;11.792;2022-10-31T02:50:06;12.53;;;6.90;;
2656;SDS011;1338;48.176;11.792;2022-10-31T02:52:38;8.53;;;6.70;;
2656;SDS011;1338;48.176;11.792;2022-10-31T02:55:12;9.67;;;6.70;;
2656;SDS011;1338;48.176;11.792;2022-10-31T02:57:58;10.90;;;6.60;;
2656;SDS011;1338;48.176;11.792;2022-10-31T03:00:30;7.73;;;6.00;;
2656;SDS011;1338;48.176;11.792;2022-10-31T03:03:10;7.50;;;6.70;;
2656;SDS011;1338;48.176;11.792;2022-10-31T03:05:50;6.50;;;5.40;;
2656;SDS011;1338;48.176;11.792;2022-10-31T03:08:23;7.53;;;6.00;;
2656;SDS011;1338;48.176;11.792;2022-10-31T03:10:57;7.13;;;6.20;;
2656;SDS011;1338;48.176;11.792;2022-10-31T03:13:29;8.90;;;6.20;;
2656;SDS011;1338;48.176;11.792;2022-10-31T03:16:04;8.50;;;6.47;;
2656;SDS011;1338;48.176;11.792;2022-10-31T03:18:39;6.80;;;5.50;;
2656;SDS011;1338;48.176;11.792;2022-10-31T03:21:11;7.57;;;5.47;;
2656;SDS011;1338;48.176;11.792;2022-10-31T03:23:41;7.67;;;6.37;;
2656;SDS011;1338;48.176;11.792;2022-10-31T03:26:18;9.60;;;5.93;;
2656;SDS011;1338;48.176;11.792;2022-10-31T03:28:49;6.60;;;5.70;;
2656;SDS011;1338;48.176;11.792;2022-10-31T03:31:22;8.27;;;6.13;;
2656;SDS011;1338;48.176;11.792;2022-10-31T03:33:55;7.57;;;5.47;;
2656;SDS011;1338;48.176;11.792;2022-10-31T03:36:28;12.23;;;7.33;;
2656;SDS011;1338;48.176;11.792;2022-10-31T03:38:59;10.70;;;7.37;;
2656;SDS011;1338;48.176;11.792;2022-10-31T03:41:31;8.33;;;6.20;;
2656;SDS011;1338;48.176;11.792;2022-10-31T03:44:06;7.53;;;6.10;;
2656;SDS011;1338;48.176;11.792;2022-10-31T03:46:38;6.87;;;4.83;;
2656;SDS011;1338;48.176;11.792;2022-10-31T03:49:08;8.97;;;6.97;;
2656;SDS011;1338;48.176;11.792;2022-10-31T03:51:38;6.80;;;5.97;;
2656;SDS011;1338;48.176;11.792;2022-10-31T03:54:12;6.47;;;5.57;;
2656;SDS011;1338;48.176;11.792;2022-10-31T03:56:49;7.03;;;5.70;;
2656;SDS011;1338;48.176;11.792;2022-10-31T03:59:23;5.90;;;5.10;;
2656;SDS011;1338;48.176;11.792;2022-10-31T04:01:55;7.00;;;6.27;;
2656;SDS011;1338;48.176;11.792;2022-10-31T04:04:29;8.37;;;6.40;;
2656;SDS011;1338;48.176;11.792;2022-10-31T04:06:58;8.10;;;6.13;;
2656;SDS011;1338;48.176;11.792;2022-10-31T04:09:29;9.03;;;5.93;;
2656;SDS011;1338;48.176;11.792;2022-10-31T04:11:59;5.87;;;5.13;;
2656;SDS011;1338;48.176;11.792;2022-10-31T04:14:38;10.37;;;6.13;;
2656;SDS011;1338;48.176;11.792;2022-10-31T04:17:09;12.40;;;6.03;;
2656;SDS011;1338;48.176;11.792;2022-10-31T04:19:43;6.33;;;5.73;;
2656;SDS011;1338;48.176;11.792;2022-10-31T04:22:11;10.03;;;5.90;;
2656;SDS011;1338;48.176;11.792;2022-10-31T04:24:40;8.70;;;5.73;;
2656;SDS011;1338;48.176;11.792;2022-10-31T04:27:12;7.17;;;5.60;;
2656;SDS011;1338;48.176;11.792;2022-10-31T04:29:40;9.73;;;7.23;;
2656;SDS011;1338;48.176;11.792;2022-10-31T04:32:13;11.87;;;7.17;;
2656;SDS011;1338;48.176;11.792;2022-10-31T04:34:43;7.60;;;6.13;;
2656;SDS011;1338;48.176;11.792;2022-10-31T04:37:11;12.40;;;6.60;;
2656;SDS011;1338;48.176;11.792;2022-10-31T04:39:39;13.07;;;6.77;;
2656;SDS011;1338;48.176;11.792;2022-10-31T04:42:28;10.33;;;6.03;;
2656;SDS011;1338;48.176;11.792;2022-10-31T04:44:59;8.40;;;5.90;;
2656;SDS011;1338;48.176;11.792;2022-10-31T04:47:30;8.93;;;6.30;;
2656;SDS011;1338;48.176;11.792;2022-10-31T04:50:01;11.17;;;6.37;;
2656;SDS011;1338;48.176;11.792;2022-10-31T04:52:31;6.30;;;5.50;;
2656;SDS011;1338;48.176;11.792;2022-10-31T04:55:00;7.57;;;6.10;;
2656;SDS011;1338;48.176;11.792;2022-10-31T04:57:48;8.37;;;6.43;;
2656;SDS011;1338;48.176;11.792;2022-10-31T05:00:19;9.30;;;5.90;;
2656;SDS011;1338;48.176;11.792;2022-10-31T05:02:50;7.13;;;5.80;;
2656;SDS011;1338;48.176;11.792;2022-10-31T05:05:22;7.80;;;5.90;;
2656;SDS011;1338;48.176;11.792;2022-10-31T05:07:52;8.50;;;5.73;;
2656;SDS011;1338;48.176;11.792;2022-10-31T05:10:23;9.80;;;5.90;;
2656;SDS011;1338;48.176;11.792;2022-10-31T05:12:56;7.00;;;5.90;;
2656;SDS011;1338;48.176;11.792;2022-10-31T05:15:46;8.30;;;6.00;;
2656;SDS011;1338;48.176;11.792;2022-10-31T05:18:34;7.10;;;6.17;;
2656;SDS011;1338;48.176;11.792;2022-10-31T05:21:23;6.93;;;5.67;;
2656;SDS011;1338;48.176;11.792;2022-10-31T05:23:56;6.10;;;5.50;;
2656;SDS011;1338;48.176;11.792;2022-10-31T05:26:24;6.10;;;5.43;;
2656;SDS011;1338;48.176;11.792;2022-10-31T05:28:53;7.17;;;5.50;;
2656;SDS011;1338;48.176;11.792;2022-10-31T05:31:22;6.53;;;5.20;;
2656;SDS011;1338;48.176;11.792;2022-10-31T05:33:52;7.37;;;5.07;;
2656;SDS011;1338;48.176;11.792;2022-10-31T05:36:56;8.63;;;6.83;;
2656;SDS011;1338;48.176;11.792;2022-10-31T05:39:24;7.40;;;5.87;;
2656;SDS011;1338;48.176;11.792;2022-10-31T05:41:56;8.30;;;6.00;;
2656;SDS011;1338;48.176;11.792;2022-10-31T05:44:25;10.60;;;6.30;;
2656;SDS011;1338;48.176;11.792;2022-10-31T05:47:23;5.97;;;5.30;;
2656;SDS011;1338;48.176;11.792;2022-10-31T05:50:20;6.70;;;5.03;;
2656;SDS011;1338;48.176;11.792;2022-10-31T05:52:59;8.10;;;5.80;;
2656;SDS011;1338;48.176;11.792;2022-10-31T05:55:33;9.53;;;6.23;;
2656;SDS011;1338;48.176;11.792;2022-10-31T05:58:10;8.00;;;5.30;;
2656;SDS011;1338;48.176;11.792;2022-10-31T06:00:43;9.53;;;5.87;;
2656;SDS011;1338;48.176;11.792;2022-10-31T06:03:12;7.53;;;6.00;;
2656;SDS011;1338;48.176;11.792;2022-10-31T06:05:45;8.70;;;6.00;;
2656;SDS011;1338;48.176;11.792;2022-10-31T06:08:23;7.53;;;5.87;;
2656;SDS011;1338;48.176;11.792;2022-10-31T06:10:53;9.10;;;5.53;;
2656;SDS011;1338;48.176;11.792;2022-10-31T06:13:41;7.80;;;5.40;;
2656;SDS011;1338;48.176;11.792;2022-10-31T06:16:18;7.73;;;5.47;;
2656;SDS011;1338;48.176;11.792;2022-10-31T06:18:46;7.33;;;5.50;;
2656;SDS011;1338;48.176;11.792;2022-10-31T06:21:15;7.50;;;5.60;;
2656;SDS011;1338;48.176;11.792;2022-10-31T06:23:48;9.20;;;5.60;;
2656;SDS011;1338;48.176;11.792;2022-10-31T06:26:42;7.50;;;5.30;;
2656;SDS011;1338;48.176;11.792;2022-10-31T06:29:11;8.13;;;5.53;;
2656;SDS011;1338;48.176;11.792;2022-10-31T06:32:01;9.77;;;5.67;;
2656;SDS011;1338;48.176;11.792;2022-10-31T06:34:31;5.33;;;4.77;;
2656;SDS011;1338;48.176;11.792;2022-10-31T06:36:59;10.23;;;5.77;;
2656;SDS011;1338;48.176;11.792;2022-10-31T06:39:30;8.17;;;5.43;;
2656;SDS011;1338;48.176;11.792;2022-10-31T06:41:58;9.83;;;5.97;;
2656;SDS011;1338;48.176;11.792;2022-10-31T06:44:28;9.90;;;6.60;;
2656;SDS011;1338;48.176;11.792;2022-10-31T06:46:59;11.97;;;6.53;;
2656;SDS011;1338;48.176;11.792;2022-10-31T06:49:53;11.30;;;5.73;;
2656;SDS011;1338;48.176;11.792;2022-10-31T06:52:22;11.87;;;5.90;;
2656;SDS011;1338;48.176;11.792;2022-10-31T06:54:53;10.80;;;5.50;;
2656;SDS011;1338;48.176;11.792;2022-10-31T06:57:22;10.20;;;6.47;;
2656;SDS011;1338;48.176;11.792;2022-10-31T06:59:50;24.57;;;7.30;;
2656;SDS011;1338;48.176;11.792;2022-10-31T07:02:24;12.30;;;6.73;;
2656;SDS011;1338;48.176;11.792;2022-10-31T07:04:52;14.43;;;6.70;;
2656;SDS011;1338;48.176;11.792;2022-10-31T07:07:21;15.57;;;7.17;;
2656;SDS011;1338;48.176;11.792;2022-10-31T07:09:50;13.03;;;6.50;;
2656;SDS011;1338;48.176;11.792;2022-10-31T07:12:27;10.70;;;5.60;;
2656;SDS011;1338;48.176;11.792;2022-10-31T07:14:57;10.03;;;6.40;;
2656;SDS011;1338;48.176;11.792;2022-10-31T07:17:25;7.57;;;5.60;;
2656;SDS011;1338;48.176;11.792;2022-10-31T07:19:57;7.00;;;5.40;;
2656;SDS011;1338;48.176;11.792;2022-10-31T07:22:31;11.10;;;5.80;;
2656;SDS011;1338;48.176;11.792;2022-10-31T07:25:01;9.57;;;6.03;;
2656;SDS011;1338;48.176;11.792;2022-10-31T07:27:50;10.97;;;6.93;;
2656;SDS011;1338;48.176;11.792;2022-10-31T07:30:18;7.37;;;5.80;;
2656;SDS011;1338;48.176;11.792;2022-10-31T07:32:50;7.90;;;5.63;;
2656;SDS011;1338;48.176;11.792;2022-10-31T07:35:21;8.00;;;5.47;;
2656;SDS011;1338;48.176;11.792;2022-10-31T07:37:56;8.57;;;6.77;;
2656;SDS011;1338;48.176;11.792;2022-10-31T07:40:25;8.70;;;6.97;;
2656;SDS011;1338;48.176;11.792;2022-10-31T07:42:54;7.43;;;6.37;;
2656;SDS011;1338;48.176;11.792;2022-10-31T07:45:49;13.90;;;7.57;;
2656;SDS011;1338;48.176;11.792;2022-10-31T07:48:47;6.60;;;5.70;;
2656;SDS011;1338;48.176;11.792;2022-10-31T07:51:33;8.27;;;5.53;;
2656;SDS011;1338;48.176;11.792;2022-10-31T07:54:30;9.43;;;6.60;;
2656;SDS011;1338;48.176;11.792;2022-10-31T07:56:58;13.53;;;7.07;;
2656;SDS011;1338;48.176;11.792;2022-10-31T07:59:28;6.60;;;5.97;;
2656;SDS011;1338;48.176;11.792;2022-10-31T08:01:57;8.77;;;5.80;;
2656;SDS011;1338;48.176;11.792;2022-10-31T08:04:45;10.07;;;6.10;;
2656;SDS011;1338;48.176;11.792;2022-10-31T08:07:19;8.57;;;5.97;;
2656;SDS011;1338;48.176;11.792;2022-10-31T08:09:54;9.80;;;5.97;;
2656;SDS011;1338;48.176;11.792;2022-10-31T08:12:27;7.07;;;5.40;;
2656;SDS011;1338;48.176;11.792;2022-10-31T08:14:56;5.50;;;4.87;;
2656;SDS011;1338;48.176;11.792;2022-10-31T08:17:24;7.20;;;6.13;;
2656;SDS011;1338;48.176;11.792;2022-10-31T08:19:57;6.97;;;5.50;;
2656;SDS011;1338;48.176;11.792;2022-10-31T08:22:30;6.97;;;6.00;;
2656;SDS011;1338;48.176;11.792;2022-10-31T08:24:59;11.10;;;5.50;;
2656;SDS011;1338;48.176;11.792;2022-10-31T08:27:28;6.03;;;5.43;;
2656;SDS011;1338;48.176;11.792;2022-10-31T08:30:00;10.60;;;7.27;;
2656;SDS011;1338;48.176;11.792;2022-10-31T08:32:30;6.10;;;5.20;;
2656;SDS011;1338;48.176;11.792;2022-10-31T08:35:36;8.70;;;5.80;;
2656;SDS011;1338;48.176;11.792;2022-10-31T08:38:33;8.40;;;5.83;;
2656;SDS011;1338;48.176;11.792;2022-10-31T08:41:01;8.40;;;6.30;;
2656;SDS011;1338;48.176;11.792;2022-10-31T08:43:29;9.80;;;5.90;;
2656;SDS011;1338;48.176;11.792;2022-10-31T08:45:59;8.83;;;6.20;;
2656;SDS011;1338;48.176;11.792;2022-10-31T08:48:28;6.60;;;5.80;;
2656;SDS011;1338;48.176;11.792;2022-10-31T08:50:56;7.97;;;6.60;;
2656;SDS011;1338;48.176;11.792;2022-10-31T08:53:27;9.50;;;8.00;;
2656;SDS011;1338;48.176;11.792;2022-10-31T08:56:16;8.90;;;6.10;;
2656;SDS011;1338;48.176;11.792;2022-10-31T08:58:45;8.30;;;6.67;;
2656;SDS011;1338;48.176;11.792;2022-10-31T09:01:15;8.17;;;5.90;;
2656;SDS011;1338;48.176;11.792;2022-10-31T09:03:43;7.37;;;6.63;;
2656;SDS011;1338;48.176;11.792;2022-10-31T09:06:11;9.27;;;6.63;;
2656;SDS011;1338;48.176;11.792;2022-10-31T09:08:40;9.83;;;6.87;;
2656;SDS011;1338;48.176;11.792;2022-10-31T09:11:08;11.23;;;8.53;;
2656;SDS011;1338;48.176;11.792;2022-10-31T09:13:54;7.10;;;6.40;;
2656;SDS011;1338;48.176;11.792;2022-10-31T09:16:53;9.37;;;6.07;;
2656;SDS011;1338;48.176;11.792;2022-10-31T09:19:29;8.57;;;6.43;;
2656;SDS011;1338;48.176;11.792;2022-10-31T09:21:57;7.30;;;6.00;;
2656;SDS011;1338;48.176;11.792;2022-10-31T09:24:25;9.57;;;6.50;;
2656;SDS011;1338;48.176;11.792;2022-10-31T09:26:53;11.23;;;6.13;;
2656;SDS011;1338;48.176;11.792;2022-10-31T09:29:26;7.47;;;6.00;;
2656;SDS011;1338;48.176;11.792;2022-10-31T09:31:59;6.97;;;5.97;;
2656;SDS011;1338;48.176;11.792;2022-10-31T09:34:28;6.40;;;5.73;;
2656;SDS011;1338;48.176;11.792;2022-10-31T09:37:09;8.93;;;5.30;;
2656;SDS011;1338;48.176;11.792;2022-10-31T09:39:38;8.00;;;5.40;;
2656;SDS011;1338;48.176;11.792;2022-10-31T09:42:40;7.77;;;5.87;;
2656;SDS011;1338;48.176;11.792;2022-10-31T09:45:21;6.93;;;5.47;;
2656;SDS011;1338;48.176;11.792;2022-10-31T09:48:00;6.27;;;5.67;;
2656;SDS011;1338;48.176;11.792;2022-10-31T09:50:56;5.93;;;4.80;;
2656;SDS011;1338;48.176;11.792;2022-10-31T09:53:51;6.00;;;5.40;;
2656;SDS011;1338;48.176;11.792;2022-10-31T09:56:25;10.53;;;6.90;;
2656;SDS011;1338;48.176;11.792;2022-10-31T09:58:58;12.53;;;6.30;;
2656;SDS011;1338;48.176;11.792;2022-10-31T10:01:30;10.80;;;6.70;;
2656;SDS011;1338;48.176;11.792;2022-10-31T10:04:05;8.63;;;6.43;;
2656;SDS011;1338;48.176;11.792;2022-10-31T10:06:59;8.47;;;5.17;;
2656;SDS011;1338;48.176;11.792;2022-10-31T10:09:42;7.57;;;5.17;;
2656;SDS011;1338;48.176;11.792;2022-10-31T10:12:35;6.90;;;5.40;;
2656;SDS011;1338;48.176;11.792;2022-10-31T10:15:27;7.70;;;5.00;;
2656;SDS011;1338;48.176;11.792;2022-10-31T10:18:12;9.37;;;5.50;;
2656;SDS011;1338;48.176;11.792;2022-10-31T10:20:53;6.63;;;5.10;;
2656;SDS011;1338;48.176;11.792;2022-10-31T10:23:36;8.00;;;4.90;;
2656;SDS011;1338;48.176;11.792;2022-10-31T10:26:15;11.60;;;5.90;;
2656;SDS011;1338;48.176;11.792;2022-10-31T10:28:47;6.57;;;5.30;;
2656;SDS011;1338;48.176;11.792;2022-10-31T10:31:21;5.67;;;4.57;;
2656;SDS011;1338;48.176;11.792;2022-10-31T10:33:55;7.23;;;4.70;;
2656;SDS011;1338;48.176;11.792;2022-10-31T10:36:32;5.77;;;4.60;;
2656;SDS011;1338;48.176;11.792;2022-10-31T10:39:08;9.00;;;5.27;;
2656;SDS011;1338;48.176;11.792;2022-10-31T10:41:42;5.90;;;5.20;;
2656;SDS011;1338;48.176;11.792;2022-10-31T10:44:28;6.20;;;4.90;;
2656;SDS011;1338;48.176;11.792;2022-10-31T10:47:13;6.23;;;4.60;;
2656;SDS011;1338;48.176;11.792;2022-10-31T10:49:59;8.10;;;5.10;;
2656;SDS011;1338;48.176;11.792;2022-10-31T10:52:32;6.23;;;4.30;;
2656;SDS011;1338;48.176;11.792;2022-10-31T10:55:16;10.57;;;5.50;;
2656;SDS011;1338;48.176;11.792;2022-10-31T10:57:55;5.60;;;4.37;;
2656;SDS011;1338;48.176;11.792;2022-10-31T11:00:26;6.40;;;4.37;;
2656;SDS011;1338;48.176;11.792;2022-10-31T11:02:57;7.93;;;5.33;;
2656;SDS011;1338;48.176;11.792;2022-10-31T11:05:29;6.83;;;4.93;;
2656;SDS011;1338;48.176;11.792;2022-10-31T11:08:03;8.60;;;4.97;;
2656;SDS011;1338;48.176;11.792;2022-10-31T11:10:32;5.83;;;4.50;;
2656;SDS011;1338;48.176;11.792;2022-10-31T11:13:04;4.83;;;4.20;;
2656;SDS011;1338;48.176;11.792;2022-10-31T11:15:53;5.70;;;4.77;;
2656;SDS011;1338;48.176;11.792;2022-10-31T11:18:25;5.50;;;4.17;;
2656;SDS011;1338;48.176;11.792;2022-10-31T11:20:55;5.30;;;4.80;;
2656;SDS011;1338;48.176;11.792;2022-10-31T11:23:27;5.67;;;4.73;;
2656;SDS011;1338;48.176;11.792;2022-10-31T11:25:57;6.40;;;4.20;;
2656;SDS011;1338;48.176;11.792;2022-10-31T11:28:27;6.30;;;4.67;;
2656;SDS011;1338;48.176;11.792;2022-10-31T11:30:57;6.07;;;4.43;;
2656;SDS011;1338;48.176;11.792;2022-10-31T11:33:28;11.30;;;5.10;;
2656;SDS011;1338;48.176;11.792;2022-10-31T11:35:58;5.60;;;4.40;;
2656;SDS011;1338;48.176;11.792;2022-10-31T11:38:31;12.40;;;4.90;;
2656;SDS011;1338;48.176;11.792;2022-10-31T11:41:06;7.30;;;4.43;;
2656;SDS011;1338;48.176;11.792;2022-10-31T11:43:38;7.83;;;4.70;;
2656;SDS011;1338;48.176;11.792;2022-10-31T11:46:15;5.90;;;5.00;;
2656;SDS011;1338;48.176;11.792;2022-10-31T11:48:48;6.20;;;4.40;;
2656;SDS011;1338;48.176;11.792;2022-10-31T11:51:21;6.00;;;5.10;;
2656;SDS011;1338;48.176;11.792;2022-10-31T11:53:53;5.80;;;4.90;;
2656;SDS011;1338;48.176;11.792;2022-10-31T11:56:37;6.53;;;5.60;;
2656;SDS011;1338;48.176;11.792;2022-10-31T11:59:21;11.60;;;6.17;;
2656;SDS011;1338;48.176;11.792;2022-10-31T12:01:52;9.50;;;5.37;;
2656;SDS011;1338;48.176;11.792;2022-10-31T12:04:32;7.97;;;5.37;;
2656;SDS011;1338;48.176;11.792;2022-10-31T12:07:07;7.73;;;5.90;;
2656;SDS011;1338;48.176;11.792;2022-10-31T12:09:36;8.10;;;5.20;;
2656;SDS011;1338;48.176;11.792;2022-10-31T12:12:11;8.30;;;5.67;;
2656;SDS011;1338;48.176;11.792;2022-10-31T12:14:52;5.13;;;4.63;;
2656;SDS011;1338;48.176;11.792;2022-10-31T12:17:30;6.20;;;4.53;;
2656;SDS011;1338;48.176;11.792;2022-10-31T12:20:06;7.03;;;4.60;;
2656;SDS011;1338;48.176;11.792;2022-10-31T12:22:45;6.13;;;5.00;;
2656;SDS011;1338;48.176;11.792;2022-10-31T12:25:21;7.43;;;5.20;;
2656;SDS011;1338;48.176;11.792;2022-10-31T12:28:16;9.03;;;4.77;;
2656;SDS011;1338;48.176;11.792;2022-10-31T12:31:24;6.67;;;4.83;;
2656;SDS011;1338;48.176;11.792;2022-10-31T12:34:06;10.67;;;5.90;;
2656;SDS011;1338;48.176;11.792;2022-10-31T12:36:53;5.63;;;4.87;;
2656;SDS011;1338;48.176;11.792;2022-10-31T12:39:30;9.97;;;6.87;;
2656;SDS011;1338;48.176;11.792;2022-10-31T12:42:11;6.30;;;4.60;;
2656;SDS011;1338;48.176;11.792;2022-10-31T12:47:53;7.40;;;4.73;;
2656;SDS011;1338;48.176;11.792;2022-10-31T12:50:39;7.43;;;5.53;;
2656;SDS011;1338;48.176;11.792;2022-10-31T12:53:29;7.00;;;4.90;;
2656;SDS011;1338;48.176;11.792;2022-10-31T12:56:15;8.97;;;5.20;;
2656;SDS011;1338;48.176;11.792;2022-10-31T12:58:52;7.60;;;6.20;;
2656;SDS011;1338;48.176;11.792;2022-10-31T13:01:29;8.23;;;5.27;;
2656;SDS011;1338;48.176;11.792;2022-10-31T13:04:02;9.33;;;6.60;;
2656;SDS011;1338;48.176;11.792;2022-10-31T13:06:38;6.20;;;5.60;;
2656;SDS011;1338;48.176;11.792;2022-10-31T13:09:11;9.13;;;6.97;;
2656;SDS011;1338;48.176;11.792;2022-10-31T13:11:45;9.03;;;6.10;;
2656;SDS011;1338;48.176;11.792;2022-10-31T13:14:24;6.80;;;5.70;;
2656;SDS011;1338;48.176;11.792;2022-10-31T13:16:55;7.23;;;5.40;;
2656;SDS011;1338;48.176;11.792;2022-10-31T13:19:25;6.93;;;4.70;;
2656;SDS011;1338;48.176;11.792;2022-10-31T13:21:57;8.27;;;5.50;;
2656;SDS011;1338;48.176;11.792;2022-10-31T13:24:31;10.60;;;7.97;;
2656;SDS011;1338;48.176;11.792;2022-10-31T13:27:03;10.60;;;7.57;;
2656;SDS011;1338;48.176;11.792;2022-10-31T13:29:42;9.90;;;8.13;;
2656;SDS011;1338;48.176;11.792;2022-10-31T13:32:18;12.70;;;7.63;;
2656;SDS011;1338;48.176;11.792;2022-10-31T13:34:47;9.97;;;7.73;;
2656;SDS011;1338;48.176;11.792;2022-10-31T13:37:21;12.50;;;8.90;;
2656;SDS011;1338;48.176;11.792;2022-10-31T13:40:02;9.13;;;6.87;;
2656;SDS011;1338;48.176;11.792;2022-10-31T13:42:41;8.80;;;7.00;;
2656;SDS011;1338;48.176;11.792;2022-10-31T13:45:22;9.77;;;8.80;;
2656;SDS011;1338;48.176;11.792;2022-10-31T13:47:56;12.43;;;8.83;;
2656;SDS011;1338;48.176;11.792;2022-10-31T13:50:27;13.50;;;9.00;;
2656;SDS011;1338;48.176;11.792;2022-10-31T13:53:12;9.00;;;7.80;;
2656;SDS011;1338;48.176;11.792;2022-10-31T13:55:47;13.70;;;9.30;;
2656;SDS011;1338;48.176;11.792;2022-10-31T13:58:19;14.00;;;7.90;;
2656;SDS011;1338;48.176;11.792;2022-10-31T14:01:12;13.40;;;9.27;;
2656;SDS011;1338;48.176;11.792;2022-10-31T14:03:45;9.90;;;7.67;;
2656;SDS011;1338;48.176;11.792;2022-10-31T14:06:41;11.93;;;7.40;;
2656;SDS011;1338;48.176;11.792;2022-10-31T14:09:19;14.10;;;11.07;;
2656;SDS011;1338;48.176;11.792;2022-10-31T14:11:50;12.07;;;9.10;;
2656;SDS011;1338;48.176;11.792;2022-10-31T14:14:19;10.33;;;8.83;;
2656;SDS011;1338;48.176;11.792;2022-10-31T14:16:55;13.20;;;11.83;;
2656;SDS011;1338;48.176;11.792;2022-10-31T14:19:25;11.47;;;8.97;;
2656;SDS011;1338;48.176;11.792;2022-10-31T14:21:54;12.90;;;8.67;;
2656;SDS011;1338;48.176;11.792;2022-10-31T14:24:32;10.27;;;8.90;;
2656;SDS011;1338;48.176;11.792;2022-10-31T14:27:04;10.40;;;9.23;;
2656;SDS011;1338;48.176;11.792;2022-10-31T14:29:47;9.97;;;9.03;;
2656;SDS011;1338;48.176;11.792;2022-10-31T14:32:19;9.77;;;8.53;;
2656;SDS011;1338;48.176;11.792;2022-10-31T14:34:53;10.97;;;8.57;;
2656;SDS011;1338;48.176;11.792;2022-10-31T14:37:27;16.73;;;12.77;;
2656;SDS011;1338;48.176;11.792;2022-10-31T14:40:05;12.60;;;11.10;;
2656;SDS011;1338;48.176;11.792;2022-10-31T14:43:05;12.07;;;8.87;;
2656;SDS011;1338;48.176;11.792;2022-10-31T14:45:49;10.80;;;9.67;;
2656;SDS011;1338;48.176;11.792;2022-10-31T14:48:36;12.77;;;10.40;;
2656;SDS011;1338;48.176;11.792;2022-10-31T14:51:26;10.20;;;8.27;;
2656;SDS011;1338;48.176;11.792;2022-10-31T14:54:00;10.90;;;9.30;;
2656;SDS011;1338;48.176;11.792;2022-10-31T14:56:30;9.77;;;8.77;;
2656;SDS011;1338;48.176;11.792;2022-10-31T14:59:02;20.97;;;11.27;;
2656;SDS011;1338;48.176;11.792;2022-10-31T15:01:34;10.70;;;9.30;;
2656;SDS011;1338;48.176;11.792;2022-10-31T15:04:07;12.70;;;11.40;;
2656;SDS011;1338;48.176;11.792;2022-10-31T15:06:54;13.63;;;11.60;;
2656;SDS011;1338;48.176;11.792;2022-10-31T15:09:28;12.20;;;9.10;;
2656;SDS011;1338;48.176;11.792;2022-10-31T15:11:58;18.30;;;10.90;;
2656;SDS011;1338;48.176;11.792;2022-10-31T15:14:27;13.90;;;12.53;;
2656;SDS011;1338;48.176;11.792;2022-10-31T15:16:56;8.80;;;8.00;;
2656;SDS011;1338;48.176;11.792;2022-10-31T15:19:29;15.47;;;12.27;;
2656;SDS011;1338;48.176;11.792;2022-10-31T15:21:59;25.43;;;16.40;;
2656;SDS011;1338;48.176;11.792;2022-10-31T15:24:30;13.40;;;11.90;;
2656;SDS011;1338;48.176;11.792;2022-10-31T15:27:01;17.00;;;11.63;;
2656;SDS011;1338;48.176;11.792;2022-10-31T15:29:31;12.20;;;11.10;;
2656;SDS011;1338;48.176;11.792;2022-10-31T15:32:01;14.80;;;11.80;;
2656;SDS011;1338;48.176;11.792;2022-10-31T15:34:44;10.77;;;7.70;;
2656;SDS011;1338;48.176;11.792;2022-10-31T15:37:14;18.03;;;14.57;;
2656;SDS011;1338;48.176;11.792;2022-10-31T15:39:43;14.53;;;13.03;;
2656;SDS011;1338;48.176;11.792;2022-10-31T15:42:19;14.30;;;12.43;;
2656;SDS011;1338;48.176;11.792;2022-10-31T15:44:50;13.03;;;11.27;;
2656;SDS011;1338;48.176;11.792;2022-10-31T15:47:21;12.43;;;11.13;;
2656;SDS011;1338;48.176;11.792;2022-10-31T15:49:53;13.40;;;11.20;;